createdAt,value
2023-04-08T00:00:29.720Z,4.30
2023-04-08T00:02:56.618Z,4.75
2023-04-08T00:05:23.444Z,4.63
2023-04-08T00:07:50.268Z,4.38
2023-04-08T00:10:17.059Z,5.40
2023-04-08T00:12:43.765Z,4.05
2023-04-08T00:15:10.598Z,4.03
2023-04-08T00:17:37.314Z,5.00
2023-04-08T00:20:05.706Z,4.68
2023-04-08T00:22:32.343Z,4.80
2023-04-08T00:24:59.041Z,5.70
2023-04-08T00:27:25.993Z,4.00
2023-04-08T00:29:52.691Z,4.63
2023-04-08T00:32:19.367Z,5.03
2023-04-08T00:34:46.081Z,4.78
2023-04-08T00:37:12.748Z,4.55
2023-04-08T00:39:39.437Z,4.35
2023-04-08T00:42:06.089Z,4.45
2023-04-08T00:44:32.742Z,5.03
2023-04-08T00:46:59.435Z,4.75
2023-04-08T00:49:26.768Z,5.05
2023-04-08T00:51:55.309Z,5.50
2023-04-08T00:54:22.060Z,4.97
2023-04-08T00:56:48.811Z,4.65
2023-04-08T00:59:15.744Z,5.03
2023-04-08T01:02:07.078Z,5.80
2023-04-08T01:04:38.588Z,5.43
2023-04-08T01:07:31.429Z,5.80
2023-04-08T01:10:06.426Z,5.47
2023-04-08T01:12:37.542Z,5.28
2023-04-08T01:15:06.907Z,5.25
2023-04-08T01:17:35.679Z,5.30
2023-04-08T01:20:05.035Z,6.07
2023-04-08T01:22:53.801Z,6.53
2023-04-08T01:25:26.201Z,6.70
2023-04-08T01:27:56.388Z,5.05
2023-04-08T01:30:24.579Z,5.47
2023-04-08T01:32:54.205Z,5.55
2023-04-08T01:35:21.399Z,5.75
2023-04-08T01:37:50.158Z,5.57
2023-04-08T01:40:18.874Z,5.65
2023-04-08T01:42:51.757Z,5.63
2023-04-08T01:45:18.727Z,5.38
2023-04-08T01:47:48.937Z,5.18
2023-04-08T01:50:17.024Z,6.05
2023-04-08T01:52:44.946Z,5.97
2023-04-08T01:55:12.118Z,6.40
2023-04-08T01:57:40.923Z,6.03
2023-04-08T02:00:12.350Z,5.57
2023-04-08T02:02:42.677Z,5.85
2023-04-08T02:05:09.595Z,5.72
2023-04-08T02:07:36.668Z,5.03
2023-04-08T02:10:04.105Z,5.75
2023-04-08T02:12:31.291Z,5.35
2023-04-08T02:14:58.245Z,5.82
2023-04-08T02:17:27.472Z,5.93
2023-04-08T02:20:06.468Z,5.78
2023-04-08T02:22:45.204Z,5.93
2023-04-08T02:25:15.637Z,5.60
2023-04-08T02:27:44.312Z,7.50
2023-04-08T02:30:13.239Z,6.38
2023-04-08T02:32:40.882Z,5.95
2023-04-08T02:35:09.355Z,6.55
2023-04-08T02:37:36.173Z,5.88
2023-04-08T02:40:02.846Z,5.68
2023-04-08T02:42:29.488Z,6.03
2023-04-08T02:44:57.300Z,6.05
2023-04-08T02:47:23.991Z,5.90
2023-04-08T02:49:53.226Z,5.90
2023-04-08T02:52:20.436Z,5.97
2023-04-08T02:54:47.080Z,5.80
2023-04-08T02:57:13.711Z,6.13
2023-04-08T02:59:40.969Z,5.90
2023-04-08T03:02:07.667Z,5.85
2023-04-08T03:04:34.511Z,6.75
2023-04-08T03:07:01.139Z,6.38
2023-04-08T03:09:27.775Z,7.38
2023-04-08T03:11:54.972Z,6.80
2023-04-08T03:14:22.259Z,7.40
2023-04-08T03:16:49.064Z,6.60
2023-04-08T03:19:16.218Z,8.07
2023-04-08T03:21:42.929Z,7.93
2023-04-08T03:24:09.664Z,7.82
2023-04-08T03:26:36.311Z,7.75
2023-04-08T03:29:02.997Z,7.95
2023-04-08T03:31:29.831Z,7.50
2023-04-08T03:33:56.640Z,7.32
2023-04-08T03:36:23.288Z,7.85
2023-04-08T03:38:50.231Z,7.55
2023-04-08T03:41:17.130Z,7.78
2023-04-08T03:43:43.989Z,7.57
2023-04-08T03:46:10.795Z,7.60
2023-04-08T03:48:37.570Z,9.00
2023-04-08T03:51:04.287Z,8.32
2023-04-08T03:53:31.002Z,8.45
2023-04-08T03:55:57.927Z,8.45
2023-04-08T03:58:24.989Z,7.50
2023-04-08T04:00:52.059Z,9.90
2023-04-08T04:03:18.991Z,9.27
2023-04-08T04:05:45.772Z,8.52
2023-04-08T04:08:12.461Z,8.48
2023-04-08T04:10:39.111Z,9.93
2023-04-08T04:13:05.897Z,8.80
2023-04-08T04:15:32.731Z,9.82
2023-04-08T04:17:59.738Z,9.60
2023-04-08T04:20:26.539Z,8.45
2023-04-08T04:22:53.215Z,8.90
2023-04-08T04:25:20.012Z,8.95
2023-04-08T04:27:46.663Z,9.52
2023-04-08T04:30:15.553Z,9.50
2023-04-08T04:32:43.059Z,10.05
2023-04-08T04:35:11.008Z,10.10
2023-04-08T04:37:37.721Z,9.18
2023-04-08T04:40:05.310Z,9.73
2023-04-08T04:42:32.942Z,9.23
2023-04-08T04:44:59.748Z,9.57
2023-04-08T04:47:26.776Z,9.80
2023-04-08T04:49:53.435Z,9.38
2023-04-08T04:52:20.095Z,10.07
2023-04-08T04:54:46.846Z,9.18
2023-04-08T04:57:13.494Z,10.02
2023-04-08T04:59:40.498Z,10.00
2023-04-08T05:02:07.351Z,10.27
2023-04-08T05:04:34.127Z,10.38
2023-04-08T05:07:00.868Z,9.65
2023-04-08T05:09:27.518Z,9.93
2023-04-08T05:11:54.140Z,10.38
2023-04-08T05:14:20.792Z,10.02
2023-04-08T05:16:47.822Z,10.32
2023-04-08T05:19:14.720Z,10.90
2023-04-08T05:21:41.777Z,10.43
2023-04-08T05:24:08.449Z,9.73
2023-04-08T05:26:36.991Z,10.63
2023-04-08T05:29:03.666Z,11.05
2023-04-08T05:31:30.459Z,10.80
2023-04-08T05:33:57.281Z,11.25
2023-04-08T05:36:23.932Z,11.63
2023-04-08T05:38:50.980Z,11.15
2023-04-08T05:41:17.742Z,11.25
2023-04-08T05:43:44.439Z,10.45
2023-04-08T05:46:11.366Z,10.00
2023-04-08T05:48:38.066Z,10.45
2023-04-08T05:51:04.766Z,11.45
2023-04-08T05:53:31.485Z,11.20
2023-04-08T05:55:58.327Z,10.95
2023-04-08T05:58:24.969Z,10.35
2023-04-08T06:00:51.631Z,11.05
2023-04-08T06:03:20.497Z,11.25
2023-04-08T06:05:47.822Z,11.35
2023-04-08T06:08:14.507Z,11.80
2023-04-08T06:10:41.325Z,12.45
2023-04-08T06:13:08.049Z,10.50
2023-04-08T06:15:34.715Z,10.90
2023-04-08T06:18:01.391Z,11.48
2023-04-08T06:20:29.620Z,9.85
2023-04-08T06:22:56.453Z,11.13
2023-04-08T06:25:23.823Z,12.20
2023-04-08T06:27:50.534Z,9.85
2023-04-08T06:30:17.304Z,10.70
2023-04-08T06:32:44.048Z,10.68
2023-04-08T06:35:11.228Z,10.13
2023-04-08T06:37:38.703Z,10.55
2023-04-08T06:40:06.518Z,10.40
2023-04-08T06:42:33.198Z,10.20
2023-04-08T06:44:59.967Z,10.15
2023-04-08T06:47:26.888Z,10.25
2023-04-08T06:49:54.389Z,10.43
2023-04-08T06:52:21.229Z,10.88
2023-04-08T06:54:47.882Z,10.57
2023-04-08T06:57:14.525Z,9.70
2023-04-08T06:59:41.208Z,9.65
2023-04-08T07:02:08.426Z,9.27
2023-04-08T07:04:35.073Z,10.13
2023-04-08T07:07:01.710Z,9.38
2023-04-08T07:09:28.555Z,8.80
2023-04-08T07:11:55.828Z,10.02
2023-04-08T07:14:22.573Z,10.80
2023-04-08T07:16:49.319Z,9.15
2023-04-08T07:19:16.222Z,10.40
2023-04-08T07:21:42.851Z,8.93
2023-04-08T07:24:09.485Z,9.38
2023-04-08T07:26:38.334Z,10.68
2023-04-08T07:29:05.199Z,9.52
2023-04-08T07:31:31.916Z,9.23
2023-04-08T07:33:58.703Z,9.68
2023-04-08T07:36:25.822Z,9.80
2023-04-08T07:38:52.584Z,10.02
2023-04-08T07:41:19.328Z,8.40
2023-04-08T07:43:46.065Z,9.45
2023-04-08T07:46:12.948Z,9.32
2023-04-08T07:48:39.634Z,9.40
2023-04-08T07:51:11.370Z,9.32
2023-04-08T07:53:39.563Z,8.48
2023-04-08T07:56:13.271Z,9.25
2023-04-08T07:58:40.952Z,9.18
2023-04-08T08:01:22.209Z,9.68
2023-04-08T08:03:50.248Z,8.38
2023-04-08T08:06:17.436Z,8.82
2023-04-08T08:08:44.149Z,9.05
2023-04-08T08:11:11.041Z,8.77
2023-04-08T08:13:37.794Z,9.13
2023-04-08T08:16:08.652Z,9.00
2023-04-08T08:18:35.724Z,8.43
2023-04-08T08:21:04.110Z,9.70
2023-04-08T08:23:30.902Z,8.43
2023-04-08T08:26:09.832Z,8.68
2023-04-08T08:28:37.088Z,9.05
2023-04-08T08:31:04.069Z,9.27
2023-04-08T08:33:30.877Z,9.02
2023-04-08T08:35:58.300Z,9.15
2023-04-08T08:38:25.400Z,8.80
2023-04-08T08:40:59.792Z,7.50
2023-04-08T08:43:27.930Z,8.90
2023-04-08T08:45:55.074Z,7.88
2023-04-08T08:48:22.026Z,8.35
2023-04-08T08:50:48.686Z,7.38
2023-04-08T08:53:15.411Z,7.97
2023-04-08T08:58:11.815Z,7.93
2023-04-08T09:00:42.474Z,8.80
2023-04-08T09:03:20.644Z,8.82
2023-04-08T09:06:03.843Z,9.18
2023-04-08T09:08:35.518Z,8.55
2023-04-08T09:11:19.114Z,8.90
2023-04-08T09:13:46.527Z,8.77
2023-04-08T09:16:16.590Z,8.13
2023-04-08T09:18:46.191Z,9.27
2023-04-08T09:21:18.968Z,8.95
2023-04-08T09:23:50.806Z,7.78
2023-04-08T09:26:22.853Z,8.65
2023-04-08T09:29:11.488Z,10.13
2023-04-08T09:31:47.219Z,9.75
2023-04-08T09:34:16.645Z,10.10
2023-04-08T09:36:44.601Z,10.05
2023-04-08T09:39:13.336Z,9.68
2023-04-08T09:41:40.910Z,9.20
2023-04-08T09:44:10.335Z,8.98
2023-04-08T09:46:49.112Z,9.13
2023-04-08T09:49:38.250Z,9.25
2023-04-08T09:52:10.336Z,9.27
2023-04-08T09:54:59.924Z,8.95
2023-04-08T09:57:41.684Z,8.32
2023-04-08T10:00:16.405Z,8.63
2023-04-08T10:02:59.017Z,9.25
2023-04-08T10:05:26.932Z,8.88
2023-04-08T10:07:55.688Z,9.07
2023-04-08T10:10:22.902Z,9.25
2023-04-08T10:12:49.773Z,8.95
2023-04-08T10:15:24.316Z,8.65
2023-04-08T10:17:53.518Z,9.30
2023-04-08T10:20:38.515Z,8.80
2023-04-08T10:23:09.982Z,8.90
2023-04-08T10:25:38.463Z,10.10
2023-04-08T10:28:19.857Z,8.82
2023-04-08T10:30:47.711Z,8.93
2023-04-08T10:33:21.081Z,9.68
2023-04-08T10:35:50.130Z,8.82
2023-04-08T10:38:17.665Z,8.25
2023-04-08T10:40:44.987Z,8.77
2023-04-08T10:43:16.103Z,8.68
2023-04-08T10:45:46.477Z,8.57
2023-04-08T10:48:20.384Z,9.10
2023-04-08T10:51:06.600Z,8.13
2023-04-08T10:53:35.525Z,8.13
2023-04-08T10:56:07.810Z,8.38
2023-04-08T10:58:36.992Z,9.25
2023-04-08T11:01:05.612Z,8.93
2023-04-08T11:03:37.252Z,8.50
2023-04-08T11:06:05.063Z,8.95
2023-04-08T11:08:33.164Z,9.30
2023-04-08T11:11:04.087Z,8.35
2023-04-08T11:16:00.979Z,8.13
2023-04-08T11:18:28.587Z,8.20
2023-04-08T11:20:55.898Z,8.70
2023-04-08T11:23:26.060Z,8.35
2023-04-08T11:25:52.984Z,9.20
2023-04-08T11:28:20.746Z,9.23
2023-04-08T11:30:48.473Z,9.70
2023-04-08T11:33:15.248Z,8.85
2023-04-08T11:35:44.021Z,9.38
2023-04-08T11:38:11.598Z,9.20
2023-04-08T11:40:38.662Z,8.60
2023-04-08T11:43:12.964Z,8.38
2023-04-08T11:45:40.628Z,9.20
2023-04-08T11:48:12.050Z,8.68
2023-04-08T11:50:38.833Z,8.18
2023-04-08T11:53:16.254Z,9.23
2023-04-08T11:55:42.940Z,9.15
2023-04-08T11:58:09.602Z,7.57
2023-04-08T12:00:38.395Z,8.60
2023-04-08T12:03:07.169Z,8.73
2023-04-08T12:05:34.226Z,8.88
2023-04-08T12:08:00.917Z,8.43
2023-04-08T12:10:27.550Z,8.15
2023-04-08T12:12:56.140Z,8.15
2023-04-08T12:15:22.793Z,8.48
2023-04-08T12:17:50.300Z,9.18
2023-04-08T12:20:17.359Z,8.00
2023-04-08T12:22:44.036Z,8.52
2023-04-08T12:25:11.004Z,7.68
2023-04-08T12:27:37.629Z,8.15
2023-04-08T12:30:04.661Z,8.00
2023-04-08T12:32:31.816Z,8.95
2023-04-08T12:34:58.583Z,8.52
2023-04-08T12:37:27.287Z,8.68
2023-04-08T12:39:54.142Z,9.00
2023-04-08T12:42:21.116Z,8.68
2023-04-08T12:44:48.001Z,10.38
2023-04-08T12:47:14.815Z,9.00
2023-04-08T12:52:11.372Z,9.10
2023-04-08T12:54:38.270Z,7.88
2023-04-08T12:57:04.907Z,9.02
2023-04-08T12:59:33.475Z,8.05
2023-04-08T13:02:00.496Z,7.53
2023-04-08T13:04:27.223Z,8.07
2023-04-08T13:06:53.881Z,9.05
2023-04-08T13:09:20.801Z,9.07
2023-04-08T13:11:47.434Z,7.93
2023-04-08T13:14:14.093Z,7.72
2023-04-08T13:16:40.933Z,7.03
2023-04-08T13:19:07.645Z,6.90
2023-04-08T13:21:34.300Z,7.13
2023-04-08T13:24:00.940Z,7.13
2023-04-08T13:26:27.670Z,6.30
2023-04-08T13:28:57.617Z,8.35
2023-04-08T13:31:25.296Z,5.90
2023-04-08T13:33:53.291Z,7.03
2023-04-08T13:36:21.310Z,6.78
2023-04-08T13:38:48.063Z,7.72
2023-04-08T13:41:14.772Z,7.03
2023-04-08T13:43:41.845Z,7.40
2023-04-08T13:46:08.557Z,7.47
2023-04-08T13:48:35.534Z,8.15
2023-04-08T13:51:02.222Z,6.60
2023-04-08T13:53:29.194Z,6.93
2023-04-08T13:55:57.167Z,7.30
2023-04-08T13:58:24.598Z,7.63
2023-04-08T14:00:51.870Z,7.82
2023-04-08T14:03:18.995Z,7.40
2023-04-08T14:05:45.879Z,7.50
2023-04-08T14:08:13.815Z,8.18
2023-04-08T14:10:42.114Z,8.52
2023-04-08T14:13:09.415Z,7.75
2023-04-08T14:15:36.223Z,8.63
2023-04-08T14:18:03.316Z,7.50
2023-04-08T14:20:30.330Z,8.32
2023-04-08T14:22:57.070Z,7.57
2023-04-08T14:25:24.217Z,7.53
2023-04-08T14:27:58.307Z,8.50
2023-04-08T14:30:26.579Z,8.43
2023-04-08T14:32:53.410Z,7.03
2023-04-08T14:35:20.423Z,6.60
2023-04-08T14:37:47.243Z,5.85
2023-04-08T14:40:13.944Z,6.93
2023-04-08T14:42:40.668Z,6.45
2023-04-08T14:45:08.496Z,7.13
2023-04-08T14:47:35.185Z,7.18
2023-04-08T14:50:02.045Z,7.53
2023-04-08T14:52:28.800Z,6.40
2023-04-08T14:54:55.435Z,6.93
2023-04-08T14:57:22.052Z,7.18
2023-04-08T14:59:48.744Z,6.72
2023-04-08T15:02:15.687Z,6.35
2023-04-08T15:04:42.371Z,6.53
2023-04-08T15:07:09.099Z,7.00
2023-04-08T15:09:35.862Z,6.10
2023-04-08T15:12:02.593Z,6.07
2023-04-08T15:14:29.273Z,5.93
2023-04-08T15:16:56.223Z,6.07
2023-04-08T15:19:23.660Z,6.13
2023-04-08T15:21:50.392Z,5.72
2023-04-08T15:24:17.119Z,6.20
2023-04-08T15:26:43.749Z,6.40
2023-04-08T15:29:10.428Z,6.13
2023-04-08T15:31:37.343Z,6.60
2023-04-08T15:34:04.012Z,5.95
2023-04-08T15:36:31.558Z,6.25
2023-04-08T15:38:58.243Z,6.22
2023-04-08T15:41:24.909Z,7.28
2023-04-08T15:43:53.079Z,7.50
2023-04-08T15:46:20.895Z,6.72
2023-04-08T15:48:48.675Z,6.90
2023-04-08T15:51:15.511Z,6.75
2023-04-08T15:53:42.428Z,7.15
2023-04-08T15:56:14.020Z,6.15
2023-04-08T15:58:41.158Z,5.68
2023-04-08T16:01:09.830Z,6.57
2023-04-08T16:03:37.423Z,7.75
2023-04-08T16:06:05.989Z,6.43
2023-04-08T16:08:34.770Z,6.30
2023-04-08T16:11:03.419Z,7.35
2023-04-08T16:13:30.933Z,6.25
2023-04-08T16:16:00.894Z,6.75
2023-04-08T16:18:28.225Z,6.50
2023-04-08T16:20:55.611Z,6.07
2023-04-08T16:23:22.642Z,6.32
2023-04-08T16:25:49.326Z,6.28
2023-04-08T16:28:16.290Z,5.95
2023-04-08T16:30:44.008Z,6.82
2023-04-08T16:33:11.372Z,6.03
2023-04-08T16:35:38.601Z,5.95
2023-04-08T16:38:06.610Z,7.07
2023-04-08T16:40:33.909Z,5.80
2023-04-08T16:43:04.022Z,6.82
2023-04-08T16:45:32.457Z,6.50
2023-04-08T16:48:00.491Z,6.80
2023-04-08T16:50:28.394Z,5.88
2023-04-08T16:52:55.499Z,6.68
2023-04-08T16:55:22.200Z,6.28
2023-04-08T16:57:49.121Z,7.82
2023-04-08T17:00:17.468Z,6.57
2023-04-08T17:02:47.295Z,6.53
2023-04-08T17:05:14.125Z,7.15
2023-04-08T17:07:40.985Z,6.68
2023-04-08T17:10:08.890Z,6.32
2023-04-08T17:12:36.176Z,6.65
2023-04-08T17:15:04.250Z,6.75
2023-04-08T17:17:31.265Z,7.28
2023-04-08T17:19:58.154Z,7.07
2023-04-08T17:22:24.967Z,6.15
2023-04-08T17:24:51.739Z,7.60
2023-04-08T17:27:18.681Z,8.27
2023-04-08T17:29:45.434Z,5.72
2023-04-08T17:32:12.667Z,7.50
2023-04-08T17:34:40.717Z,7.03
2023-04-08T17:37:08.001Z,6.03
2023-04-08T17:39:41.053Z,7.03
2023-04-08T17:42:08.421Z,5.97
2023-04-08T17:44:37.457Z,6.50
2023-04-08T17:47:04.280Z,6.25
2023-04-08T17:49:32.809Z,7.68
2023-04-08T17:51:59.453Z,7.85
2023-04-08T17:54:26.236Z,6.07
2023-04-08T17:56:53.084Z,6.93
2023-04-08T17:59:19.754Z,7.07
2023-04-08T18:01:47.362Z,6.93
2023-04-08T18:04:14.246Z,6.70
2023-04-08T18:06:41.094Z,7.53
2023-04-08T18:09:07.796Z,6.70
2023-04-08T18:11:34.441Z,7.10
2023-04-08T18:14:01.104Z,7.03
2023-04-08T18:16:27.843Z,6.97
2023-04-08T18:18:54.527Z,6.93
2023-04-08T18:21:22.091Z,7.72
2023-04-08T18:23:50.055Z,6.97
2023-04-08T18:26:17.110Z,8.43
2023-04-08T18:28:44.600Z,8.45
2023-04-08T18:31:11.336Z,7.65
2023-04-08T18:33:39.036Z,7.07
2023-04-08T18:36:10.224Z,7.90
2023-04-08T18:38:37.328Z,7.38
2023-04-08T18:41:04.551Z,8.32
2023-04-08T18:43:31.756Z,7.95
2023-04-08T18:45:58.942Z,7.63
2023-04-08T18:48:26.215Z,7.65
2023-04-08T18:50:52.907Z,8.30
2023-04-08T18:53:19.637Z,7.88
2023-04-08T18:55:46.324Z,9.13
2023-04-08T18:58:13.433Z,7.97
2023-04-08T19:00:43.758Z,8.60
2023-04-08T19:03:10.937Z,7.70
2023-04-08T19:05:38.164Z,8.35
2023-04-08T19:08:05.528Z,8.48
2023-04-08T19:10:33.171Z,8.30
2023-04-08T19:13:00.450Z,8.27
2023-04-08T19:15:28.759Z,8.88
2023-04-08T19:17:58.482Z,10.25
2023-04-08T19:20:25.212Z,9.50
2023-04-08T19:22:52.188Z,9.68
2023-04-08T19:25:19.984Z,9.20
2023-04-08T19:27:48.428Z,8.75
2023-04-08T19:30:15.416Z,8.07
2023-04-08T19:32:45.239Z,9.73
2023-04-08T19:35:13.134Z,9.75
2023-04-08T19:37:40.019Z,9.55
2023-04-08T19:40:10.027Z,9.30
2023-04-08T19:42:36.764Z,8.93
2023-04-08T19:45:07.052Z,10.73
2023-04-08T19:47:33.904Z,10.57
2023-04-08T19:50:00.699Z,9.02
2023-04-08T19:52:27.415Z,10.23
2023-04-08T19:54:54.083Z,9.65
2023-04-08T19:57:23.517Z,10.88
2023-04-08T19:59:53.218Z,10.38
2023-04-08T20:02:20.228Z,8.77
2023-04-08T20:04:47.086Z,9.90
2023-04-08T20:07:14.750Z,9.75
2023-04-08T20:09:41.522Z,10.38
2023-04-08T20:12:09.104Z,9.43
2023-04-08T20:14:38.856Z,9.30
2023-04-08T20:17:05.838Z,10.13
2023-04-08T20:19:32.614Z,9.27
2023-04-08T20:21:59.254Z,9.25
2023-04-08T20:24:26.242Z,10.93
2023-04-08T20:26:53.393Z,10.20
2023-04-08T20:29:20.168Z,9.20
2023-04-08T20:31:47.264Z,9.93
2023-04-08T20:34:16.011Z,9.77
2023-04-08T20:36:43.644Z,10.45
2023-04-08T20:39:11.215Z,9.32
2023-04-08T20:41:38.451Z,9.88
2023-04-08T20:44:10.848Z,10.43
2023-04-08T20:46:38.163Z,10.52
2023-04-08T20:49:05.505Z,10.00
2023-04-08T20:51:35.003Z,9.27
2023-04-08T20:54:01.672Z,8.98
2023-04-08T20:56:28.505Z,9.80
2023-04-08T20:58:58.142Z,11.00
2023-04-08T21:01:25.894Z,9.98
2023-04-08T21:03:52.834Z,10.18
2023-04-08T21:06:20.568Z,9.48
2023-04-08T21:08:47.775Z,10.48
2023-04-08T21:11:14.848Z,10.43
2023-04-08T21:13:41.653Z,10.60
2023-04-08T21:16:08.997Z,10.18
2023-04-08T21:18:38.531Z,10.20
2023-04-08T21:21:05.512Z,9.38
2023-04-08T21:23:32.153Z,10.52
2023-04-08T21:25:58.778Z,9.88
2023-04-08T21:28:25.883Z,10.13
2023-04-08T21:30:52.607Z,9.50
2023-04-08T21:33:19.236Z,10.20
2023-04-08T21:35:46.063Z,10.18
2023-04-08T21:38:12.839Z,9.30
2023-04-08T21:40:39.477Z,9.30
2023-04-08T21:43:06.301Z,10.52
2023-04-08T21:45:32.983Z,9.23
2023-04-08T21:47:59.898Z,9.77
2023-04-08T21:50:26.583Z,9.18
2023-04-08T21:52:53.274Z,9.00
2023-04-08T21:55:19.971Z,9.50
2023-04-08T21:57:46.759Z,8.88
2023-04-08T22:00:15.068Z,8.65
2023-04-08T22:02:41.952Z,9.10
2023-04-08T22:05:10.403Z,9.85
2023-04-08T22:07:37.442Z,10.55
2023-04-08T22:10:04.307Z,9.02
2023-04-08T22:12:31.021Z,9.55
2023-04-08T22:14:57.856Z,9.73
2023-04-08T22:17:24.558Z,9.70
2023-04-08T22:19:51.412Z,9.95
2023-04-08T22:22:18.462Z,10.32
2023-04-08T22:24:45.292Z,9.20
2023-04-08T22:27:12.138Z,9.98
2023-04-08T22:29:38.846Z,8.88
2023-04-08T22:32:05.937Z,9.32
2023-04-08T22:34:32.578Z,10.85
2023-04-08T22:36:59.227Z,10.57
2023-04-08T22:39:26.768Z,9.93
2023-04-08T22:41:53.606Z,9.60
2023-04-08T22:44:20.429Z,9.38
2023-04-08T22:46:47.137Z,10.52
2023-04-08T22:49:13.814Z,9.75
2023-04-08T22:51:41.692Z,9.77
2023-04-08T22:54:08.445Z,10.10
2023-04-08T22:56:35.602Z,9.77
2023-04-08T22:59:02.310Z,9.20
2023-04-08T23:01:29.118Z,9.68
2023-04-08T23:03:55.824Z,9.40
2023-04-08T23:06:22.496Z,9.43
2023-04-08T23:08:49.209Z,10.07
2023-04-08T23:11:16.019Z,10.52
2023-04-08T23:13:42.762Z,9.85
2023-04-08T23:16:09.853Z,10.43
2023-04-08T23:18:36.545Z,10.13
2023-04-08T23:21:03.829Z,9.25
2023-04-08T23:23:30.604Z,10.98
2023-04-08T23:25:57.257Z,10.18
2023-04-08T23:28:24.125Z,10.45
2023-04-08T23:30:50.969Z,10.05
2023-04-08T23:33:17.670Z,10.70
2023-04-08T23:35:45.104Z,10.35
2023-04-08T23:38:11.960Z,10.15
2023-04-08T23:40:38.718Z,9.05
2023-04-08T23:43:05.439Z,10.05
2023-04-08T23:45:32.093Z,9.82
2023-04-08T23:47:58.833Z,10.32
2023-04-08T23:50:26.263Z,10.07
2023-04-08T23:52:53.268Z,9.60
2023-04-08T23:55:19.911Z,10.25
2023-04-08T23:57:49.147Z,10.70
